• Join FlightAware (Why Join?)
  • Login
  • US Flag 
Rudolph Flight #1: Arrived! 
07:20AM EST


 

Airport Tracker/Info


-or-


 

Live Flight TrackerFlight Track Log ✈ SWA2353 ✈ 05-May-2013 ✈ KSTL - KBWI

Flight Track Log - Related Links

Times and Time Zones

All times are in EDT time to prevent confusion due to time zone crossing. See the SWA2353 flight status page for this flight to view local times or setup timezone preferences in your user account.

Time Position Orientation Groundspeed Altitude Reporting Facility
EDT Latitude Longitude Course Direction KTS MPH feet Rate Location/Type
10:55PM 38.7939 -90.3947 320° Northwest 202 232 3,800  Level Kansas City Center
10:56PM 38.8531 -90.3772 13° North 243 280 8,200 4,020 Climbing Kansas City Center
10:57PM 38.8761 -90.2608 76° East 277 319 12,000 3,180 Climbing Kansas City Center
10:58PM 38.9025 -90.1367 75° East 345 397 14,700 3,060 Climbing Kansas City Center
10:59PM 38.9297 -90.0047 75° East 372 428 18,300 3,180 Climbing Kansas City Center
11:00PM 38.9553 -89.8706 76° East 388 447 21,200 2,760 Climbing Kansas City Center
11:01PM 38.9861 -89.7172 75° East 407 468 24,000 2,580 Climbing Kansas City Center
11:02PM 39.0150 -89.5703 76° East 421 484 26,500 2,520 Climbing Kansas City Center
11:03PM 39.0436 -89.4222 76° East 424 488 29,200 2,160 Climbing Kansas City Center
11:04PM 39.0700 -89.2811 76° East 410 472 31,000 840 Climbing Kansas City Center
11:05PM 39.0975 -89.1425 76° East 403 464 31,000 60 Level Kansas City Center
11:06PM 39.1267 -88.9922 76° East 403 464 31,200 1,200 Climbing Kansas City Center
11:07PM 39.1528 -88.8744 74° East 404 465 33,500 1,860 Climbing Kansas City Center
11:08PM 39.1775 -88.7378 77° East 399 459 35,000 1,260 Climbing Kansas City Center
11:09PM 39.2042 -88.5911 77° East 403 464 36,100 1,260 Climbing Kansas City Center
11:10PM 39.2325 -88.4431 76° East 417 480 37,600 1,320 Climbing Kansas City Center
11:11PM 39.2606 -88.2947 76° East 423 487 38,800 1,320 Climbing Kansas City Center
11:12PM 39.2942 -88.1153 76° East 425 489 40,400 1,080 Climbing Kansas City Center
11:13PM 39.3203 -87.9656 77° East 425 489 41,000 300 Climbing Kansas City Center
11:14PM 39.3411 -87.8450 77° East 433 498 41,000  Level Indianapolis Center
11:15PM 39.3686 -87.6917 77° East 436 502 41,000  Level Indianapolis Center
11:16PM 39.3947 -87.5450 77° East 434 499 41,000  Level Indianapolis Center
11:17PM 39.4217 -87.3933 77° East 435 501 41,000  Level Indianapolis Center
11:18PM 39.4481 -87.2442 77° East 429 494 41,000  Level Indianapolis Center
11:19PM 39.4786 -87.0678 77° East 422 486 41,000  Level Indianapolis Center
11:20PM 39.5044 -86.9214 77° East 419 482 41,000  Level Indianapolis Center
11:21PM 39.5294 -86.7756 77° East 418 481 41,000  Level Indianapolis Center
11:22PM 39.5542 -86.6300 78° East 417 480 41,000  Level Indianapolis Center
11:23PM 39.5786 -86.4842 78° East 420 483 41,000  Level Indianapolis Center
11:24PM 39.6019 -86.3392 78° East 419 482 41,000  Level Indianapolis Center
11:25PM 39.6267 -86.1956 77° East 420 483 41,000  Level Indianapolis Center
11:26PM 39.6500 -86.0497 78° East 422 486 41,000  Level Indianapolis Center
11:27PM 39.6742 -85.9022 78° East 423 487 41,000  Level Indianapolis Center
11:28PM 39.7031 -85.7236 78° East 425 489 41,000  Level Indianapolis Center
11:29PM 39.7278 -85.5719 78° East 431 496 41,000  Level Indianapolis Center
11:30PM 39.7517 -85.4203 78° East 431 496 41,000  Level Indianapolis Center
11:31PM 39.7550 -85.2642 88° East 435 501 41,000  Level Indianapolis Center
11:32PM 39.7514 -85.1075 92° East 434 499 41,000  Level Indianapolis Center
11:33PM 39.7483 -84.9519 91° East 434 499 41,000  Level Indianapolis Center
11:34PM 39.7447 -84.7881 92° East 435 501 41,000  Level Indianapolis Center
11:35PM 39.7411 -84.6292 92° East 436 502 41,000  Level Indianapolis Center
11:36PM 39.7369 -84.4719 92° East 434 499 41,000  Level Indianapolis Center
11:37PM 39.7331 -84.3136 92° East 436 502 41,000  Level Indianapolis Center
11:38PM 39.7292 -84.1569 92° East 433 498 41,000  Level Indianapolis Center
11:39PM 39.7247 -83.9992 92° East 434 499 41,000  Level Indianapolis Center
11:40PM 39.7194 -83.8422 92° East 433 498 41,000  Level Indianapolis Center
11:41PM 39.7147 -83.6844 92° East 436 502 41,000  Level Indianapolis Center
11:42PM 39.7094 -83.5281 92° East 438 504 41,000  Level Indianapolis Center
11:43PM 39.7047 -83.3708 92° East 441 507 41,000  Level Indianapolis Center
11:44PM 39.7003 -83.2147 92° East 436 502 41,000  Level Indianapolis Center
11:45PM 39.6936 -83.0556 93° East 438 504 41,000  Level Indianapolis Center
11:46PM 39.6886 -82.8969 92° East 438 504 41,000  Level Indianapolis Center
11:47PM 39.6822 -82.7381 93° East 440 506 41,000  Level Indianapolis Center
11:48PM 39.6756 -82.5792 93° East 438 504 41,000  Level Indianapolis Center
11:49PM 39.6689 -82.4203 93° East 438 504 41,000  Level Indianapolis Center
11:50PM 39.6625 -82.2611 93° East 438 504 41,000  Level Indianapolis Center
11:51PM 39.6544 -82.0939 94° East 438 504 41,000  Level Indianapolis Center
11:52PM 39.6489 -81.9678 93° East 437 503 41,000  Level Indianapolis Center
11:53PM 39.6414 -81.8111 94° East 434 499 41,000  Level Indianapolis Center
11:54PM 39.6347 -81.6550 93° East 433 498 41,000  Level Indianapolis Center
11:55PM 39.6333 -81.5831 91° East 431 496 41,000  Level Cleveland Center
11:56PM 39.6261 -81.4292 93° East 426 490 41,000  Level Cleveland Center
11:57PM 39.6169 -81.2756 94° East 426 490 41,000  Level Cleveland Center
11:58PM 39.6072 -81.1192 95° East 426 490 41,000  Level Cleveland Center
11:58PM 39.6022 -81.0278 94° East 437 503 41,000  Level Indianapolis Center
11:59PM 39.5947 -80.8697 93° East 437 503 41,000  Level Indianapolis Center
12:00AM 39.5850 -80.7122 95° East 436 502 41,000  Level Indianapolis Center
12:01AM 39.5750 -80.5539 95° East 438 504 41,000  Level Indianapolis Center
12:02AM 39.5739 -80.4567 91° East 436 502 41,000  Level Washington Center
12:03AM 39.5633 -80.3025 95° East 436 502 41,000  Level Washington Center
12:04AM 39.5547 -80.1431 94° East 441 507 41,000  Level Washington Center
12:05AM 39.5419 -79.9836 96° East 441 507 41,000  Level Washington Center
12:06AM 39.5308 -79.8267 95° East 446 513 41,000  Level Washington Center
12:07AM 39.5219 -79.6675 94° East 446 513 41,000  Level Washington Center
12:08AM 39.5111 -79.4894 94° East 451 519 41,000  Level Washington Center
12:09AM 39.5014 -79.3300 94° East 445 512 41,000  Level Washington Center
12:10AM 39.4892 -79.1842 96° East 445 512 41,000  Level Washington Center
12:11AM 39.4772 -79.0250 96° East 445 512 41,000  Level Washington Center
12:12AM 39.4672 -78.8658 95° East 445 512 41,000  Level Washington Center
12:13AM 39.4525 -78.7067 97° East 445 512 41,000 -1,260 Level Washington Center
12:14AM 39.4419 -78.5475 95° East 445 512 38,500 -3,420 Descending Washington Center
12:15AM 39.4292 -78.3886 96° East 445 512 34,300 -4,260 Descending Washington Center
12:16AM 39.4161 -78.2269 96° East 445 512 29,900 -4,860 Descending Washington Center
12:17AM 39.4047 -78.0733 95° East 445 512 24,800 -5,400 Descending Washington Center
12:18AM 39.3833 -77.8000 96° East 427 491 16,000 -4,800 Descending Potomac TRACON
12:19AM 39.3942 -77.7561 72° East 428 493 15,200 -3,360 Descending Washington Center
12:20AM 39.3797 -77.6322 99° East 388 447 11,400 -3,240 Descending Washington Center
12:20AM 39.3667 -77.5667 104° East 321 369 10,000 -1,320 Descending Potomac TRACON
12:21AM 39.3333 -77.4667 113° Southeast 278 320 9,300 -1,140 Descending Potomac TRACON
12:22AM 39.3167 -77.3667 102° East 270 311 7,800 -1,500 Descending Potomac TRACON
12:23AM 39.2833 -77.2833 117° Southeast 264 304 6,300 -1,560 Descending Potomac TRACON
12:24AM 39.2667 -77.2000 104° East 259 298 4,700 -1,200 Descending Potomac TRACON
12:25AM 39.2500 -77.1167 104° East 250 288 4,000 -360 Descending Potomac TRACON
12:26AM 39.2167 -77.0333 117° Southeast 237 273 4,000 -60 Level Potomac TRACON
12:27AM 39.2000 -76.9500 104° East 240 276 3,900 -480 Descending Potomac TRACON
12:28AM 39.1833 -76.8833 108° East 214 246 3,100 -960 Descending Potomac TRACON
12:29AM 39.1833 -76.8167 90° East 182 209 2,100 -900 Descending Potomac TRACON
12:30AM 39.1833 -76.7667 90° East 136 157 1,300 -720 Descending Potomac TRACON
12:31AM 39.1833 -76.7167 90° East 114 131 700 -600 Descending Potomac TRACON
12:33AM 39.1667 -76.6667 142° Southeast  Level FlightAware Approximate
12:40AM 39.1754 -76.6683 142° Southeast  Level Estimated
12:41AM 39.1754 -76.6683 142° Southeast  Level Estimated
12:42AM 39.1754 -76.6683 142° Southeast  Level Estimated
12:43AM 39.1754 -76.6683 142° Southeast  Level Estimated